Time;durP1;ratioP1;P1;durP2;ratioP2;P2;SDS_P1;SDS_P2;PMS_P1;PMS_P2;Temp;Humidity;BMP_temperature;BMP_pressure;BME280_temperature;BME280_humidity;BME280_pressure;Samples;Min_cycle;Max_cycle;Signal;HPM_P1;HPM_P2
2022/07/15 00:01:02;;;;;;;3.13;2.60;;;19.70;93.80;;;;;;5059195;28;20475;-91
2022/07/15 00:03:29;;;;;;;4.10;3.37;;;19.70;93.60;;;;;;5059201;28;20952;-91
2022/07/15 00:05:55;;;;;;;3.83;2.57;;;19.60;93.90;;;;;;5058003;28;20459;-91
2022/07/15 00:08:22;;;;;;;3.33;3.03;;;19.60;94.00;;;;;;5057856;28;20466;-92
2022/07/15 00:10:49;;;;;;;3.30;2.90;;;19.60;93.90;;;;;;5058444;28;20513;-90
2022/07/15 00:13:17;;;;;;;4.70;2.80;;;19.50;93.80;;;;;;5057151;28;20467;-91
2022/07/15 00:15:44;;;;;;;4.53;3.50;;;19.50;93.60;;;;;;5057313;28;20482;-90
2022/07/15 00:18:11;;;;;;;3.47;2.73;;;19.50;93.70;;;;;;5057722;28;20464;-90
2022/07/15 00:20:38;;;;;;;4.13;3.40;;;19.40;93.80;;;;;;5058506;28;20471;-90
2022/07/15 00:23:07;;;;;;;3.23;2.93;;;19.40;94.00;;;;;;5061266;28;20467;-90
2022/07/15 00:25:34;;;;;;;3.57;2.90;;;19.40;94.00;;;;;;5064207;28;20455;-90
2022/07/15 00:28:04;;;;;;;3.10;2.40;;;19.30;94.00;;;;;;5078933;28;20450;-90
2022/07/15 00:30:34;;;;;;;2.83;2.63;;;19.30;94.40;;;;;;5060614;28;20439;-90
2022/07/15 00:33:01;;;;;;;5.20;3.30;;;19.20;94.90;;;;;;5057167;28;20471;-90
2022/07/15 00:35:29;;;;;;;3.93;3.10;;;19.10;95.30;;;;;;5056661;28;20487;-90
2022/07/15 00:37:55;;;;;;;3.70;3.10;;;19.00;95.60;;;;;;5056561;28;21055;-90
2022/07/15 00:40:23;;;;;;;3.80;3.03;;;18.90;95.70;;;;;;5056025;28;20452;-89
2022/07/15 00:42:50;;;;;;;3.77;3.37;;;18.90;96.20;;;;;;5056309;28;20541;-90
2022/07/15 00:45:18;;;;;;;3.67;3.37;;;18.70;96.60;;;;;;5056539;28;20466;-90
2022/07/15 00:47:48;;;;;;;3.50;3.00;;;18.60;96.70;;;;;;5056315;28;20459;-90
2022/07/15 00:50:16;;;;;;;5.63;3.37;;;18.60;96.90;;;;;;5055890;28;20444;-89
2022/07/15 00:52:46;;;;;;;4.20;2.80;;;18.50;97.00;;;;;;5055667;28;20488;-89
2022/07/15 00:55:13;;;;;;;3.60;3.30;;;18.50;97.20;;;;;;5055336;28;20491;-90
2022/07/15 00:57:43;;;;;;;5.13;3.20;;;18.40;97.30;;;;;;5055808;28;20470;-91
2022/07/15 01:00:11;;;;;;;4.60;3.60;;;18.40;97.20;;;;;;5055234;28;20471;-90
2022/07/15 01:02:39;;;;;;;3.97;2.97;;;18.30;97.20;;;;;;5056302;28;20601;-90
2022/07/15 01:05:11;;;;;;;4.00;2.87;;;18.30;97.10;;;;;;5054946;28;20463;-90
2022/07/15 01:07:38;;;;;;;4.63;3.40;;;18.20;96.90;;;;;;5055422;28;20463;-90
2022/07/15 01:10:05;;;;;;;3.70;3.07;;;18.20;96.90;;;;;;5054939;28;20800;-90
2022/07/15 01:12:37;;;;;;;3.50;3.20;;;18.10;96.70;;;;;;5054903;28;20875;-93
2022/07/15 01:15:04;;;;;;;3.83;3.23;;;18.10;96.80;;;;;;5055023;28;20536;-91
2022/07/15 01:17:32;;;;;;;3.20;2.77;;;18.00;96.80;;;;;;5055173;28;20464;-92
2022/07/15 01:19:59;;;;;;;3.10;2.70;;;18.00;96.90;;;;;;5054645;28;20573;-92
2022/07/15 01:22:27;;;;;;;3.20;2.80;;;17.90;96.80;;;;;;5055304;28;20491;-91
2022/07/15 01:24:54;;;;;;;3.80;2.70;;;17.90;97.00;;;;;;5054875;28;20827;-92
2022/07/15 01:27:21;;;;;;;4.13;3.10;;;17.80;96.60;;;;;;5055546;28;20465;-91
2022/07/15 01:29:48;;;;;;;3.63;3.23;;;17.80;97.20;;;;;;5054910;28;20467;-91
2022/07/15 01:32:15;;;;;;;4.00;3.43;;;17.70;97.30;;;;;;5055322;28;20479;-92
2022/07/15 01:34:42;;;;;;;3.03;2.83;;;17.70;97.40;;;;;;5055262;28;20472;-91
2022/07/15 01:37:09;;;;;;;5.40;3.30;;;17.60;97.50;;;;;;5055589;28;20452;-91
2022/07/15 01:39:37;;;;;;;3.90;3.30;;;17.50;97.60;;;;;;5056283;28;20459;-92
2022/07/15 01:42:03;;;;;;;3.30;3.00;;;17.40;97.70;;;;;;5057163;28;20487;-91
2022/07/15 01:44:30;;;;;;;3.30;2.70;;;17.30;97.70;;;;;;5057881;28;20460;-91
2022/07/15 01:46:57;;;;;;;3.20;2.90;;;17.30;97.90;;;;;;5062192;28;20455;-91
2022/07/15 01:49:25;;;;;;;3.33;3.03;;;17.20;98.00;;;;;;5060900;28;20470;-91
2022/07/15 01:51:53;;;;;;;3.20;2.90;;;17.10;98.20;;;;;;5054604;28;20538;-91
2022/07/15 01:54:20;;;;;;;3.47;3.17;;;17.10;98.30;;;;;;5054300;28;20463;-92
2022/07/15 01:56:48;;;;;;;3.70;3.20;;;17.00;98.50;;;;;;5054340;28;20463;-91
2022/07/15 01:59:15;;;;;;;3.50;2.80;;;17.00;98.60;;;;;;5053847;28;20470;-92
2022/07/15 02:01:43;;;;;;;3.10;2.83;;;16.90;98.50;;;;;;5054383;28;20483;-91
2022/07/15 02:04:10;;;;;;;5.50;3.23;;;16.80;98.30;;;;;;5054312;28;20948;-91
2022/07/15 02:06:37;;;;;;;3.03;2.83;;;16.80;98.20;;;;;;5053966;28;20455;-91
2022/07/15 02:09:04;;;;;;;4.27;3.67;;;16.70;98.20;;;;;;5054234;28;20821;-91
2022/07/15 02:11:31;;;;;;;3.13;2.83;;;16.70;98.10;;;;;;5053770;28;21026;-92
2022/07/15 02:13:59;;;;;;;4.33;3.30;;;16.60;98.10;;;;;;5054072;28;20479;-91
2022/07/15 02:16:26;;;;;;;4.93;3.10;;;16.60;98.10;;;;;;5052986;28;20479;-92
2022/07/15 02:18:53;;;;;;;4.70;3.20;;;16.60;98.20;;;;;;5054017;28;20490;-91
2022/07/15 02:21:20;;;;;;;4.77;2.80;;;16.50;98.20;;;;;;5053514;28;21023;-92
2022/07/15 02:23:47;;;;;;;3.33;2.63;;;16.50;98.30;;;;;;5054142;28;20455;-91
2022/07/15 02:26:14;;;;;;;3.50;3.00;;;16.40;98.30;;;;;;5053784;28;20513;-91
2022/07/15 02:28:42;;;;;;;4.47;2.33;;;16.30;98.20;;;;;;5053905;28;20470;-92
2022/07/15 02:31:11;;;;;;;3.47;3.17;;;16.30;98.30;;;;;;5053503;28;20925;-90
2022/07/15 02:33:38;;;;;;;2.87;2.67;;;16.30;98.50;;;;;;5053789;28;20465;-91
2022/07/15 02:36:05;;;;;;;4.03;2.77;;;16.20;98.50;;;;;;5055173;28;20479;-91
2022/07/15 02:38:32;;;;;;;4.13;3.13;;;16.10;98.70;;;;;;5055630;28;20838;-90
2022/07/15 02:40:58;;;;;;;3.10;2.70;;;16.10;98.40;;;;;;5054246;28;20487;-90
2022/07/15 02:43:25;;;;;;;7.63;3.10;;;16.10;98.40;;;;;;5054281;28;20475;-91
2022/07/15 02:45:52;;;;;;;3.63;3.30;;;16.00;98.50;;;;;;5053571;28;20865;-91
2022/07/15 02:48:21;;;;;;;4.10;2.93;;;16.00;98.70;;;;;;5054507;28;20463;-91
2022/07/15 02:50:47;;;;;;;3.93;3.17;;;15.90;98.70;;;;;;5054359;28;20464;-91
2022/07/15 02:53:14;;;;;;;3.23;2.80;;;15.90;98.90;;;;;;5053356;28;20965;-91
2022/07/15 02:55:41;;;;;;;3.80;2.97;;;15.80;99.00;;;;;;5054193;28;20479;-91
2022/07/15 02:58:08;;;;;;;3.57;3.10;;;15.80;99.00;;;;;;5053187;28;20458;-90
2022/07/15 03:00:35;;;;;;;3.43;2.93;;;15.70;99.00;;;;;;5052185;28;20509;-91
2022/07/15 03:03:02;;;;;;;4.00;3.10;;;15.70;99.20;;;;;;5052688;28;20546;-91
2022/07/15 03:05:30;;;;;;;3.60;3.20;;;15.60;99.20;;;;;;5052899;28;20953;-91
2022/07/15 03:07:58;;;;;;;3.10;2.80;;;15.60;99.40;;;;;;5052338;28;20512;-91
2022/07/15 03:10:24;;;;;;;2.53;2.33;;;15.50;99.10;;;;;;5052459;28;20470;-91
2022/07/15 03:12:51;;;;;;;2.93;2.40;;;15.50;99.40;;;;;;5052335;28;20513;-91
2022/07/15 03:15:18;;;;;;;2.90;2.60;;;15.50;99.30;;;;;;5052232;28;20491;-91
2022/07/15 03:17:45;;;;;;;4.83;2.40;;;15.50;99.30;;;;;;5052765;28;20459;-91
2022/07/15 03:20:12;;;;;;;3.03;2.83;;;15.50;99.40;;;;;;5051861;28;20451;-91
2022/07/15 03:22:40;;;;;;;3.93;3.00;;;15.50;99.30;;;;;;5052841;28;20999;-91
2022/07/15 03:25:08;;;;;;;3.93;2.93;;;15.40;99.30;;;;;;5052687;28;20451;-91
2022/07/15 03:27:35;;;;;;;4.37;3.03;;;15.40;99.40;;;;;;5052994;28;20459;-91
2022/07/15 03:30:02;;;;;;;3.30;3.00;;;15.30;99.50;;;;;;5063190;28;20464;-91
2022/07/15 03:32:29;;;;;;;3.30;3.00;;;15.30;99.90;;;;;;5067228;28;20478;-92
2022/07/15 03:34:57;;;;;;;5.00;3.13;;;15.20;99.90;;;;;;5063978;28;20479;-90
2022/07/15 03:37:24;;;;;;;3.60;3.00;;;15.20;99.90;;;;;;5058195;28;20453;-91
2022/07/15 03:39:52;;;;;;;4.13;3.17;;;15.20;99.90;;;;;;5059358;28;20471;-91
2022/07/15 03:42:19;;;;;;;3.37;2.77;;;15.10;99.90;;;;;;5049320;28;20475;-92
2022/07/15 03:44:46;;;;;;;3.60;2.70;;;15.10;99.90;;;;;;5049994;28;20456;-90
2022/07/15 03:47:13;;;;;;;4.33;3.03;;;15.10;99.90;;;;;;5051498;28;20968;-91
2022/07/15 03:49:40;;;;;;;3.33;3.03;;;15.00;99.90;;;;;;5052427;28;20601;-91
2022/07/15 03:52:06;;;;;;;6.37;3.70;;;15.00;99.90;;;;;;5052316;28;20481;-91
2022/07/15 03:54:33;;;;;;;4.60;2.93;;;14.90;99.90;;;;;;5068905;28;20454;-91
2022/07/15 03:57:04;;;;;;;4.33;2.90;;;14.90;99.90;;;;;;5058452;28;20582;-91
2022/07/15 03:59:31;;;;;;;3.37;3.00;;;14.90;99.90;;;;;;5052632;28;20457;-91
2022/07/15 04:01:58;;;;;;;4.97;3.10;;;14.90;99.90;;;;;;5048805;28;20476;-90
2022/07/15 04:04:24;;;;;;;3.80;2.77;;;14.90;99.90;;;;;;5049749;28;20457;-90
2022/07/15 04:06:51;;;;;;;3.47;3.17;;;14.90;99.90;;;;;;5047767;28;20459;-91
2022/07/15 04:09:18;;;;;;;3.93;3.30;;;14.90;99.90;;;;;;5048895;28;20448;-90
2022/07/15 04:11:45;;;;;;;6.53;3.03;;;14.90;99.90;;;;;;5044496;28;20483;-92
2022/07/15 04:14:14;;;;;;;4.10;3.37;;;14.80;99.90;;;;;;5056248;28;20464;-90
2022/07/15 04:16:41;;;;;;;3.63;3.17;;;14.80;99.90;;;;;;5061251;28;20483;-91
2022/07/15 04:19:08;;;;;;;5.03;3.90;;;14.80;99.90;;;;;;5059541;28;20471;-91
2022/07/15 04:21:35;;;;;;;3.67;2.80;;;14.90;99.90;;;;;;5057289;28;20509;-92
2022/07/15 04:24:02;;;;;;;3.30;2.97;;;14.90;99.90;;;;;;5103435;22;20495;-64
2022/07/15 04:26:29;;;;;;;3.50;3.00;;;14.90;99.90;;;;;;5040341;28;20483;-65
2022/07/15 04:28:56;;;;;;;3.80;3.30;;;14.90;99.90;;;;;;5052935;28;20471;-65
2022/07/15 04:31:24;;;;;;;3.70;3.20;;;14.90;99.90;;;;;;5051476;28;20451;-65
2022/07/15 04:33:51;;;;;;;3.60;2.97;;;14.90;99.90;;;;;;5053416;28;20558;-65
2022/07/15 04:36:17;;;;;;;6.00;3.33;;;14.90;99.90;;;;;;5053214;28;20937;-66
2022/07/15 04:38:44;;;;;;;6.43;3.20;;;14.90;99.90;;;;;;5052945;28;20520;-65
2022/07/15 04:41:11;;;;;;;3.30;2.97;;;15.00;99.90;;;;;;5051363;28;20459;-65
2022/07/15 04:43:38;;;;;;;3.50;3.20;;;15.00;99.90;;;;;;5052896;28;20464;-65
2022/07/15 04:46:04;;;;;;;5.63;3.50;;;15.00;99.90;;;;;;5052737;28;20841;-65
2022/07/15 04:51:25;;;;;;;6.37;3.37;;;15.10;99.90;;;;;;5002431;28;20589;-65
2022/07/15 04:53:52;;;;;;;3.60;3.30;;;15.20;99.90;;;;;;5050196;28;20487;-65
2022/07/15 04:56:18;;;;;;;3.60;3.03;;;15.20;99.90;;;;;;5052264;28;20495;-65
2022/07/15 04:58:45;;;;;;;5.93;3.07;;;15.30;99.90;;;;;;5052415;28;20471;-65
2022/07/15 05:01:12;;;;;;;3.30;3.00;;;15.30;99.90;;;;;;5052530;28;20840;-66
2022/07/15 05:03:41;;;;;;;7.83;3.37;;;15.40;99.90;;;;;;5052453;28;20467;-65
2022/07/15 05:06:08;;;;;;;3.40;3.10;;;15.40;99.90;;;;;;5052839;28;20488;-65
2022/07/15 05:08:35;;;;;;;5.77;3.60;;;15.40;99.90;;;;;;5052368;28;20850;-65
2022/07/15 05:11:01;;;;;;;4.17;2.93;;;15.50;99.90;;;;;;5052223;28;20959;-65
2022/07/15 05:13:28;;;;;;;4.13;2.77;;;15.60;99.90;;;;;;5052489;28;20816;-65
2022/07/15 05:15:55;;;;;;;3.47;3.07;;;15.60;99.90;;;;;;5052386;28;20889;-65
2022/07/15 05:18:21;;;;;;;3.67;3.00;;;15.70;99.90;;;;;;5052601;28;20471;-66
2022/07/15 05:20:50;;;;;;;5.00;3.33;;;15.80;99.90;;;;;;5051721;28;20877;-65
2022/07/15 05:23:18;;;;;;;5.90;3.23;;;15.90;99.90;;;;;;5052300;28;20466;-65
2022/07/15 05:25:45;;;;;;;3.50;3.20;;;15.90;99.90;;;;;;5051786;28;20499;-65
2022/07/15 05:28:11;;;;;;;3.37;3.00;;;16.00;99.90;;;;;;5052563;28;20463;-65
2022/07/15 05:30:38;;;;;;;6.57;2.90;;;16.10;99.90;;;;;;5051489;28;20886;-65
2022/07/15 05:33:05;;;;;;;5.47;2.93;;;16.20;99.90;;;;;;5052005;28;20821;-65
2022/07/15 05:35:32;;;;;;;3.23;2.60;;;16.30;99.90;;;;;;5051945;28;20487;-66
2022/07/15 05:38:00;;;;;;;5.25;3.45;;;16.40;99.90;;;;;;5051563;28;20466;-68
2022/07/15 05:40:26;;;;;;;3.97;3.13;;;16.50;99.90;;;;;;5051374;28;20687;-67
2022/07/15 05:42:54;;;;;;;4.53;3.20;;;16.60;99.90;;;;;;5125994;22;20522;-69
2022/07/15 05:45:21;;;;;;;4.93;2.90;;;16.60;99.90;;;;;;5048469;28;20487;-72
2022/07/15 05:47:49;;;;;;;6.17;3.20;;;16.70;99.90;;;;;;5051091;28;20487;-68
2022/07/15 05:50:16;;;;;;;8.60;3.30;;;16.90;99.90;;;;;;5050713;28;20521;-70
2022/07/15 05:52:44;;;;;;;2.73;2.40;;;17.00;99.90;;;;;;5050917;28;20474;-69
2022/07/15 05:55:13;;;;;;;3.57;2.50;;;17.10;99.90;;;;;;5049618;28;20483;-69
2022/07/15 05:57:41;;;;;;;6.70;3.10;;;17.20;99.90;;;;;;5051312;28;20551;-69
2022/07/15 06:00:09;;;;;;;4.90;2.80;;;17.40;99.90;;;;;;5050870;28;20460;-69
2022/07/15 06:02:36;;;;;;;6.07;2.50;;;17.50;99.90;;;;;;5051010;28;20483;-69
2022/07/15 06:05:03;;;;;;;3.30;2.63;;;17.60;99.20;;;;;;5050304;28;20491;-69
2022/07/15 06:07:29;;;;;;;2.57;2.13;;;17.70;98.80;;;;;;5050879;28;20483;-69
2022/07/15 06:09:56;;;;;;;5.23;2.40;;;17.80;99.00;;;;;;5050034;28;20459;-69
2022/07/15 06:12:24;;;;;;;3.67;2.03;;;17.80;98.20;;;;;;5050316;28;20823;-69
2022/07/15 06:14:51;;;;;;;3.27;2.20;;;17.90;97.00;;;;;;5049763;28;20502;-69
2022/07/15 06:17:18;;;;;;;8.00;2.20;;;18.00;96.70;;;;;;5050359;28;20947;-69
2022/07/15 06:19:44;;;;;;;3.60;2.17;;;18.10;96.60;;;;;;5049475;28;20879;-70
2022/07/15 06:22:11;;;;;;;3.60;2.23;;;18.20;96.00;;;;;;5050232;28;20459;-69
2022/07/15 06:24:38;;;;;;;3.10;2.20;;;18.20;95.30;;;;;;5050079;28;20479;-69
2022/07/15 06:27:04;;;;;;;2.20;1.97;;;18.30;95.00;;;;;;5049847;28;20483;-69
2022/07/15 06:29:33;;;;;;;2.37;1.80;;;18.30;94.70;;;;;;5049440;28;20973;-69
2022/07/15 06:32:00;;;;;;;2.20;1.87;;;18.40;94.40;;;;;;5050447;28;20542;-69
2022/07/15 06:34:26;;;;;;;4.63;1.80;;;18.40;94.40;;;;;;5049660;28;20466;-69
2022/07/15 06:36:53;;;;;;;2.40;2.10;;;18.50;94.00;;;;;;5050304;28;20467;-69
2022/07/15 06:39:20;;;;;;;2.53;1.90;;;18.50;94.30;;;;;;5049158;28;20486;-69
2022/07/15 06:41:47;;;;;;;2.10;1.90;;;18.60;93.50;;;;;;5049273;28;20510;-69
2022/07/15 06:44:13;;;;;;;2.80;2.10;;;18.60;93.80;;;;;;5050247;28;20900;-70
2022/07/15 06:46:41;;;;;;;2.20;1.90;;;18.70;94.00;;;;;;5049852;28;20515;-69
2022/07/15 06:49:08;;;;;;;5.60;2.63;;;18.80;93.70;;;;;;5048605;28;20486;-69
2022/07/15 06:51:35;;;;;;;2.23;1.97;;;18.90;93.90;;;;;;5048822;28;20478;-68
2022/07/15 06:54:02;;;;;;;3.50;2.40;;;18.90;93.90;;;;;;5049664;28;20952;-68
2022/07/15 06:56:29;;;;;;;3.37;2.17;;;19.10;92.80;;;;;;5049743;28;20494;-69
2022/07/15 06:58:56;;;;;;;3.77;2.13;;;19.10;91.90;;;;;;5049497;28;20467;-68
2022/07/15 07:01:22;;;;;;;2.37;2.00;;;19.10;91.10;;;;;;5049745;28;20467;-69
2022/07/15 07:03:51;;;;;;;1.83;1.60;;;19.20;91.60;;;;;;5048859;28;20474;-70
2022/07/15 07:06:18;;;;;;;2.40;2.20;;;19.20;91.40;;;;;;5050086;28;20487;-71
2022/07/15 07:08:46;;;;;;;4.10;2.50;;;19.30;91.80;;;;;;5049637;28;20504;-69
2022/07/15 07:11:13;;;;;;;4.97;2.30;;;19.40;91.80;;;;;;5049025;28;20459;-69
2022/07/15 07:13:39;;;;;;;5.13;2.27;;;19.50;91.10;;;;;;5049775;28;20463;-70
2022/07/15 07:16:07;;;;;;;4.00;2.23;;;19.50;91.60;;;;;;5049329;28;20483;-70
2022/07/15 07:18:34;;;;;;;5.20;2.10;;;19.60;92.10;;;;;;5049448;28;20468;-70
2022/07/15 07:21:02;;;;;;;3.00;2.33;;;19.70;91.40;;;;;;5048809;28;20467;-70
2022/07/15 07:23:30;;;;;;;2.23;2.03;;;19.80;91.50;;;;;;5049716;28;20920;-70
2022/07/15 07:25:57;;;;;;;4.37;2.40;;;19.90;91.50;;;;;;5049852;28;21015;-70
2022/07/15 07:28:24;;;;;;;5.20;2.30;;;19.90;91.50;;;;;;5048985;28;20490;-69
2022/07/15 07:30:54;;;;;;;4.40;2.20;;;20.00;91.00;;;;;;5049083;28;20554;-70
2022/07/15 07:33:21;;;;;;;4.17;2.37;;;20.10;91.20;;;;;;5049244;28;20463;-70
2022/07/15 07:35:47;;;;;;;3.47;2.43;;;20.10;91.30;;;;;;5049393;28;20661;-70
2022/07/15 07:38:16;;;;;;;7.37;2.30;;;20.20;92.10;;;;;;5049558;28;20866;-69
2022/07/15 07:40:42;;;;;;;3.00;2.30;;;20.20;92.20;;;;;;5048044;28;20991;-69
2022/07/15 07:43:09;;;;;;;4.23;2.67;;;20.30;91.80;;;;;;5049827;28;20512;-70
2022/07/15 07:45:36;;;;;;;3.83;2.50;;;20.30;91.40;;;;;;5048981;28;20499;-70
2022/07/15 07:48:03;;;;;;;4.83;2.67;;;20.40;90.60;;;;;;5049268;28;20490;-70
2022/07/15 07:50:30;;;;;;;3.57;2.30;;;20.40;90.80;;;;;;5048670;28;20463;-69
2022/07/15 07:52:57;;;;;;;4.20;2.57;;;20.50;90.80;;;;;;5049928;28;20463;-70
2022/07/15 07:55:25;;;;;;;2.60;2.10;;;20.60;91.30;;;;;;5049663;28;20483;-70
2022/07/15 07:57:53;;;;;;;3.63;2.50;;;20.70;90.90;;;;;;5049407;28;20463;-70
2022/07/15 08:00:27;;;;;;;3.10;2.67;;;20.70;90.90;;;;;;5048780;28;20835;-69
2022/07/15 08:02:55;;;;;;;3.90;2.30;;;20.80;91.30;;;;;;5048974;28;20459;-69
2022/07/15 08:05:23;;;;;;;2.63;2.43;;;20.70;89.90;;;;;;5049518;28;20483;-69
2022/07/15 08:07:50;;;;;;;4.03;1.97;;;20.80;91.80;;;;;;5049204;28;21198;-70
2022/07/15 08:10:19;;;;;;;4.07;2.60;;;20.80;91.40;;;;;;5049102;28;20459;-69
2022/07/15 08:12:47;;;;;;;3.27;2.50;;;21.00;91.00;;;;;;5049550;28;20459;-70
2022/07/15 08:15:15;;;;;;;2.97;2.37;;;21.00;90.50;;;;;;5051964;28;20483;-70
2022/07/15 08:17:42;;;;;;;3.90;2.97;;;21.10;92.00;;;;;;5053561;28;20451;-69
2022/07/15 08:20:10;;;;;;;4.57;2.40;;;21.20;91.60;;;;;;5052014;28;20904;-70
2022/07/15 08:22:38;;;;;;;3.70;2.47;;;21.30;92.40;;;;;;5053296;28;20462;-69
2022/07/15 08:25:06;;;;;;;3.10;2.70;;;21.40;91.40;;;;;;5052412;28;20479;-70
2022/07/15 08:27:32;;;;;;;4.33;2.40;;;21.50;91.60;;;;;;5052840;28;20495;-70
2022/07/15 08:30:01;;;;;;;3.60;2.13;;;21.60;91.80;;;;;;5045629;28;20460;-70
2022/07/15 08:32:27;;;;;;;3.33;2.10;;;21.70;92.30;;;;;;5032939;28;20468;-70
2022/07/15 08:34:54;;;;;;;4.27;2.93;;;21.90;90.50;;;;;;5033098;28;20516;-69
2022/07/15 08:37:21;;;;;;;2.77;2.23;;;22.00;91.20;;;;;;5033106;28;20835;-69
2022/07/15 08:39:47;;;;;;;3.43;2.50;;;22.00;90.80;;;;;;5032399;28;20463;-70
2022/07/15 08:42:14;;;;;;;3.40;2.77;;;22.10;91.20;;;;;;5032372;28;20882;-70
2022/07/15 08:44:41;;;;;;;3.20;2.60;;;22.10;91.20;;;;;;5032763;28;20486;-70
2022/07/15 08:47:10;;;;;;;3.80;2.63;;;22.20;90.70;;;;;;5032731;28;20539;-70
2022/07/15 08:49:40;;;;;;;2.50;2.27;;;22.20;91.40;;;;;;5031523;28;20467;-70
2022/07/15 08:52:07;;;;;;;4.90;2.70;;;22.30;90.70;;;;;;5032836;28;20473;-70
2022/07/15 08:54:35;;;;;;;4.23;2.47;;;22.40;91.70;;;;;;5032272;28;20842;-70
2022/07/15 08:57:02;;;;;;;3.90;2.67;;;22.50;90.00;;;;;;5032502;28;20452;-71
2022/07/15 08:59:29;;;;;;;10.87;2.60;;;22.50;90.60;;;;;;5031535;28;20468;-70
2022/07/15 09:01:56;;;;;;;3.73;2.70;;;22.60;90.60;;;;;;5032735;28;20487;-70
2022/07/15 09:04:24;;;;;;;3.37;2.73;;;22.70;90.30;;;;;;5032119;28;20468;-70
2022/07/15 09:06:51;;;;;;;3.50;2.23;;;22.90;92.30;;;;;;5032131;28;20487;-70
2022/07/15 09:09:34;;;;;;;4.03;2.50;;;22.90;91.30;;;;;;5031820;28;20460;-70
2022/07/15 09:12:04;;;;;;;2.83;2.60;;;23.00;91.30;;;;;;5032063;28;20524;-70
2022/07/15 09:14:32;;;;;;;6.30;2.93;;;23.20;92.40;;;;;;5032286;28;20480;-69
2022/07/15 09:17:07;;;;;;;2.63;2.43;;;23.30;92.10;;;;;;5031940;28;20453;-70
2022/07/15 09:20:05;;;;;;;2.80;2.40;;;23.30;90.40;;;;;;5031314;28;20471;-70
2022/07/15 09:22:35;;;;;;;3.53;2.53;;;23.30;90.50;;;;;;5031537;28;20492;-70
2022/07/15 09:25:07;;;;;;;3.60;2.67;;;23.30;91.50;;;;;;5031717;28;20491;-70
2022/07/15 09:27:35;;;;;;;3.37;2.40;;;23.40;91.90;;;;;;5031303;28;20520;-69
2022/07/15 09:36:02;;;;;;;8.93;2.60;;;23.90;90.60;;;;;;5024260;28;20465;-69
2022/07/15 09:38:35;;;;;;;4.77;2.87;;;24.00;90.20;;;;;;5031634;28;20463;-70
2022/07/15 09:41:03;;;;;;;4.93;2.90;;;24.10;90.40;;;;;;5030829;28;20531;-70
2022/07/15 09:43:31;;;;;;;4.00;2.47;;;24.20;91.60;;;;;;5031514;28;20471;-70
2022/07/15 09:45:59;;;;;;;2.80;2.43;;;24.30;91.10;;;;;;5031817;28;20851;-70
2022/07/15 09:48:28;;;;;;;3.10;2.50;;;24.30;90.80;;;;;;5031761;28;20561;-70
2022/07/15 09:51:00;;;;;;;3.17;2.60;;;24.30;90.30;;;;;;5030962;28;20502;-71
2022/07/15 09:53:28;;;;;;;4.50;3.23;;;24.40;91.10;;;;;;5031483;28;20971;-70
2022/07/15 09:55:55;;;;;;;3.43;2.90;;;24.40;87.00;;;;;;5031611;28;20538;-70
2022/07/15 09:58:22;;;;;;;3.70;2.80;;;24.50;90.10;;;;;;5100947;22;20800;-70
2022/07/15 10:00:48;;;;;;;2.70;2.20;;;24.60;89.40;;;;;;5014951;28;20464;-71
2022/07/15 10:03:17;;;;;;;2.90;2.50;;;24.60;87.80;;;;;;5011275;28;20952;-71
2022/07/15 10:05:45;;;;;;;2.57;2.37;;;24.80;90.70;;;;;;5011501;28;20485;-69
2022/07/15 10:08:17;;;;;;;6.97;2.70;;;25.00;90.30;;;;;;5011508;28;20492;-72
2022/07/15 10:10:44;;;;;;;4.17;2.13;;;25.00;90.70;;;;;;5010962;28;20465;-71
2022/07/15 10:13:27;;;;;;;3.10;2.33;;;25.10;90.20;;;;;;5011391;28;20466;-70
2022/07/15 10:16:04;;;;;;;2.60;2.40;;;25.20;90.40;;;;;;5011514;28;20492;-71
2022/07/15 10:18:49;;;;;;;3.80;2.53;;;25.30;88.40;;;;;;5010907;28;20449;-70
2022/07/15 10:21:27;;;;;;;2.87;2.43;;;25.10;90.00;;;;;;5010879;28;20468;-71
2022/07/15 10:24:28;;;;;;;3.43;2.80;;;25.10;89.20;;;;;;5069864;22;20500;-92
2022/07/15 10:27:54;;;;;;;4.87;3.20;;;25.20;90.30;;;;;;5046375;28;20483;-92
2022/07/15 10:30:24;;;;;;;3.10;2.60;;;25.40;87.20;;;;;;5042996;28;20531;-93
2022/07/15 10:33:24;;;;;;;2.97;2.67;;;25.50;89.80;;;;;;5039736;28;20464;-94
2022/07/15 10:36:11;;;;;;;4.33;2.83;;;25.40;87.50;;;;;;5050949;28;20460;-94
2022/07/15 10:38:40;;;;;;;4.00;2.80;;;25.40;90.10;;;;;;5050844;28;20491;-93
2022/07/15 10:41:10;;;;;;;3.37;2.40;;;25.60;87.40;;;;;;5048920;28;20483;-94
2022/07/15 10:43:48;;;;;;;3.73;2.73;;;25.60;86.40;;;;;;5043914;28;20484;-93
2022/07/15 10:46:22;;;;;;;2.77;2.50;;;25.60;85.10;;;;;;5042078;28;20563;-93
2022/07/15 10:49:19;;;;;;;3.00;2.13;;;25.70;87.50;;;;;;5043901;28;20569;-92
2022/07/15 10:51:47;;;;;;;3.07;2.73;;;25.80;87.90;;;;;;5041106;28;20471;-93
2022/07/15 10:55:01;;;;;;;3.10;2.80;;;25.90;87.20;;;;;;5040895;28;20591;-93
2022/07/15 10:57:55;;;;;;;4.73;2.40;;;26.00;89.60;;;;;;5044348;28;20483;-93
2022/07/15 11:00:32;;;;;;;2.47;2.27;;;26.20;87.10;;;;;;5004032;28;20465;-93
2022/07/15 11:03:08;;;;;;;2.50;2.30;;;26.20;85.80;;;;;;5041429;28;20465;-94
2022/07/15 11:06:05;;;;;;;4.00;2.90;;;26.00;86.20;;;;;;5047205;28;20443;-93
2022/07/15 11:08:56;;;;;;;2.50;2.30;;;26.00;86.70;;;;;;5047128;28;20483;-92
2022/07/15 11:11:49;;;;;;;2.70;2.30;;;26.10;90.00;;;;;;5042473;28;20934;-93
2022/07/15 11:15:21;;;;;;;3.23;2.93;;;26.30;88.90;;;;;;5039721;28;20490;-92
2022/07/15 11:17:57;;;;;;;3.03;2.27;;;26.40;86.40;;;;;;4958002;29;21048;-93
2022/07/15 11:21:05;;;;;;;3.17;2.87;;;26.10;87.70;;;;;;4958188;29;20574;-93
2022/07/15 11:23:32;;;;;;;3.30;2.30;;;26.00;85.80;;;;;;5030473;28;20493;-91
2022/07/15 11:25:59;;;;;;;3.97;2.50;;;25.90;86.90;;;;;;5035418;28;21007;-93
2022/07/15 11:28:26;;;;;;;3.60;2.63;;;25.90;89.50;;;;;;5035173;28;20455;-92
2022/07/15 11:30:54;;;;;;;6.50;2.70;;;26.00;84.50;;;;;;5034700;28;20461;-92
2022/07/15 11:33:25;;;;;;;4.53;2.63;;;26.20;89.70;;;;;;5034981;28;20534;-93
2022/07/15 11:35:54;;;;;;;3.13;2.83;;;26.30;87.30;;;;;;5040907;28;20475;-92
2022/07/15 11:38:23;;;;;;;3.50;2.57;;;26.10;84.80;;;;;;5057451;23;20585;-72
2022/07/15 11:46:23;;;;;;;5.13;2.57;;;25.40;88.60;;;;;;5049376;28;20847;-68
2022/07/15 11:48:52;;;;;;;4.93;2.80;;;25.70;86.60;;;;;;5050519;28;20461;-70
2022/07/15 11:51:26;;;;;;;4.90;4.13;;;25.70;83.30;;;;;;5052547;28;20502;-69
2022/07/15 11:53:52;;;;;;;4.43;3.07;;;25.70;83.10;;;;;;5053711;28;21012;-69
2022/07/15 11:56:20;;;;;;;2.83;2.60;;;25.40;82.40;;;;;;5053631;28;20978;-70
2022/07/15 11:58:51;;;;;;;3.07;2.30;;;25.30;86.00;;;;;;5045766;28;20863;-69
2022/07/15 12:01:20;;;;;;;2.60;2.40;;;25.50;88.70;;;;;;5036536;28;20471;-69
2022/07/15 12:03:48;;;;;;;3.20;2.30;;;25.80;90.40;;;;;;5050795;28;20530;-69
2022/07/15 12:06:19;;;;;;;3.70;2.87;;;26.10;88.20;;;;;;5053663;28;20498;-72
2022/07/15 12:08:48;;;;;;;4.30;2.97;;;26.30;86.20;;;;;;5053970;28;20562;-71
2022/07/15 12:11:19;;;;;;;3.03;2.57;;;26.50;90.00;;;;;;5052845;28;20843;-71
2022/07/15 12:13:49;;;;;;;3.03;2.47;;;26.60;86.90;;;;;;5053718;28;20462;-70
2022/07/15 12:16:21;;;;;;;3.37;2.70;;;26.70;84.90;;;;;;5053286;28;20487;-71
2022/07/15 12:18:49;;;;;;;3.53;2.80;;;26.50;82.80;;;;;;5053560;28;20495;-71
2022/07/15 12:21:17;;;;;;;5.63;2.73;;;26.20;83.90;;;;;;5052880;28;20463;-70
2022/07/15 12:23:59;;;;;;;3.07;2.77;;;26.00;85.90;;;;;;5053474;28;20460;-70
2022/07/15 12:26:26;;;;;;;3.43;3.13;;;26.00;87.80;;;;;;5053270;28;20479;-70
2022/07/15 12:28:55;;;;;;;2.90;2.60;;;25.90;87.60;;;;;;5053233;28;20455;-70
2022/07/15 12:31:25;;;;;;;4.50;2.77;;;26.00;88.70;;;;;;5052804;28;20491;-70
2022/07/15 12:33:52;;;;;;;3.70;2.70;;;26.00;88.70;;;;;;5053021;28;20554;-71
2022/07/15 12:36:23;;;;;;;3.43;2.80;;;26.10;86.70;;;;;;5052999;28;20860;-69
2022/07/15 12:39:09;;;;;;;2.93;2.63;;;26.10;86.70;;;;;;5053072;28;21036;-68
2022/07/15 12:41:37;;;;;;;2.70;2.50;;;26.20;87.80;;;;;;5052629;28;20459;-70
2022/07/15 12:44:05;;;;;;;4.30;2.60;;;26.30;87.30;;;;;;5053310;28;20502;-70
2022/07/15 12:46:55;;;;;;;3.03;2.70;;;26.40;84.70;;;;;;5052666;28;20479;-69
2022/07/15 12:49:42;;;;;;;2.80;2.50;;;26.10;84.90;;;;;;5052242;28;20935;-71
2022/07/15 12:52:21;;;;;;;3.27;2.63;;;26.00;89.60;;;;;;5052516;28;20557;-71
2022/07/15 12:54:49;;;;;;;2.67;2.43;;;25.90;86.00;;;;;;5053113;28;20483;-71
2022/07/15 12:57:31;;;;;;;7.43;2.70;;;25.80;87.40;;;;;;5052432;28;20455;-71
2022/07/15 13:00:00;;;;;;;3.10;2.70;;;25.70;87.00;;;;;;5051883;28;20518;-70
2022/07/15 13:02:28;;;;;;;5.10;3.00;;;25.90;89.90;;;;;;5052310;28;20505;-69
2022/07/15 13:04:54;;;;;;;3.67;2.80;;;26.20;90.10;;;;;;5052294;28;20475;-69
2022/07/15 13:07:22;;;;;;;5.30;2.70;;;26.50;87.90;;;;;;5052439;28;20470;-70
2022/07/15 13:09:49;;;;;;;5.93;3.10;;;26.70;87.70;;;;;;5051751;28;20466;-70
2022/07/15 13:12:17;;;;;;;3.27;2.77;;;26.80;87.80;;;;;;5052370;28;20522;-71
2022/07/15 13:14:44;;;;;;;2.93;2.60;;;26.80;86.40;;;;;;5052485;28;20480;-71